createdAt,value
2019-02-06T15:59:11.554Z,100767.55
2019-02-06T16:02:42.632Z,100763.89
2019-02-06T16:05:48.816Z,100755.11
2019-02-06T16:09:07.471Z,100759.58
2019-02-06T16:11:43.209Z,100758.30
2019-02-06T16:14:49.510Z,100759.42
2019-02-06T16:17:55.117Z,100762.94
2019-02-06T16:21:12.670Z,100766.48
2019-02-06T16:24:21.778Z,100754.31
2019-02-06T16:27:24.354Z,100754.59
2019-02-06T16:30:04.645Z,100744.45
2019-02-06T16:32:58.718Z,100736.64
2019-02-06T16:35:58.574Z,100731.39
2019-02-06T16:38:44.477Z,100726.06
2019-02-06T16:41:38.535Z,100723.30
2019-02-06T16:44:36.441Z,100723.53
2019-02-06T16:47:45.281Z,100727.33
2019-02-06T16:50:26.715Z,100742.48
2019-02-06T16:53:25.799Z,100732.08
2019-02-06T16:56:39.849Z,100731.36
2019-02-06T16:59:45.750Z,100723.18
2019-02-06T17:03:00.193Z,100733.86
2019-02-06T17:06:02.102Z,100728.69
2019-02-06T17:08:46.133Z,100729.22
2019-02-06T17:11:37.711Z,100722.25
2019-02-06T17:14:53.792Z,100723.69
2019-02-06T17:17:50.549Z,100725.54
2019-02-06T17:21:18.781Z,100724.28
2019-02-06T17:24:28.404Z,100712.45
2019-02-06T17:27:13.522Z,100710.38
2019-02-06T17:30:29.878Z,100708.23
2019-02-06T17:33:39.002Z,100713.52
2019-02-06T17:36:44.358Z,100721.97
2019-02-06T17:39:56.265Z,100720.70
2019-02-06T17:42:48.817Z,100731.70
2019-02-06T17:46:11.685Z,100731.31
2019-02-06T17:49:20.374Z,100723.45
2019-02-06T17:52:57.885Z,100717.30
2019-02-06T17:55:27.046Z,100711.63
2019-02-06T17:57:57.665Z,100712.52
2019-02-06T18:01:03.140Z,100700.25
2019-02-06T18:03:36.461Z,100697.17
2019-02-06T18:06:05.786Z,100696.30
2019-02-06T18:08:34.522Z,100699.86
2019-02-06T18:11:03.359Z,100702.02
2019-02-06T18:13:32.175Z,100699.38
2019-02-06T18:16:00.943Z,100697.22
2019-02-06T18:18:29.679Z,100698.06
2019-02-06T18:20:58.513Z,100695.03
2019-02-06T18:23:27.253Z,100683.61
2019-02-06T18:25:56.359Z,100685.80
2019-02-06T18:28:25.092Z,100687.17
2019-02-06T18:30:53.837Z,100689.42
2019-02-06T18:33:22.752Z,100683.21
2019-02-06T18:35:51.763Z,100672.71
2019-02-06T18:38:20.526Z,100676.24
2019-02-06T18:40:49.375Z,100677.12
2019-02-06T18:43:18.132Z,100682.41
2019-02-06T18:45:46.894Z,100673.66
2019-02-06T18:48:15.759Z,100679.33
2019-02-06T18:50:44.815Z,100678.45
2019-02-06T18:53:13.857Z,100680.26
2019-02-06T18:55:42.597Z,100673.66
2019-02-06T18:58:11.364Z,100671.47
2019-02-06T19:00:40.211Z,100664.42
2019-02-06T19:03:13.386Z,100656.95
2019-02-06T19:05:42.303Z,100657.01
2019-02-06T19:08:11.163Z,100654.82
2019-02-06T19:10:39.966Z,100662.73
2019-02-06T19:13:09.099Z,100664.05
2019-02-06T19:15:37.840Z,100657.94
2019-02-06T19:18:08.375Z,100658.83
2019-02-06T19:20:37.296Z,100656.20
2019-02-06T19:23:06.176Z,100649.66
2019-02-06T19:25:34.989Z,100656.25
2019-02-06T19:28:03.795Z,100649.27
2019-02-06T19:30:35.009Z,100644.43
2019-02-06T19:33:03.784Z,100648.39
2019-02-06T19:35:32.522Z,100644.48
2019-02-06T19:38:01.290Z,100644.97
2019-02-06T19:40:30.027Z,100645.41
2019-02-06T19:43:02.353Z,100642.33
2019-02-06T19:45:28.598Z,100630.91
2019-02-06T19:47:57.666Z,100625.62
2019-02-06T19:50:46.806Z,100628.32
2019-02-06T19:53:15.649Z,100627.81
2019-02-06T19:55:44.467Z,100619.53
2019-02-06T19:58:13.241Z,100618.70
2019-02-06T20:00:42.071Z,100620.85
2019-02-06T20:03:10.976Z,100612.48
2019-02-06T20:05:39.712Z,100612.09
2019-02-06T20:08:10.592Z,100606.82
2019-02-06T20:10:41.828Z,100609.46
2019-02-06T20:13:14.371Z,100607.27
2019-02-06T20:16:00.429Z,100601.18
2019-02-06T20:18:29.224Z,100590.63
2019-02-06T20:20:59.456Z,100595.91
2019-02-06T20:23:28.476Z,100588.47
2019-02-06T20:25:57.457Z,100582.77
2019-02-06T20:28:26.740Z,100586.28
2019-02-06T20:30:57.227Z,100579.73
2019-02-06T20:34:05.798Z,100575.39
2019-02-06T20:36:34.718Z,100571.02
2019-02-06T20:39:08.734Z,100568.38
2019-02-06T20:41:37.466Z,100570.62
2019-02-06T20:44:06.249Z,100567.53
2019-02-06T20:46:35.260Z,100560.52
2019-02-06T20:49:04.035Z,100557.48
2019-02-06T20:51:33.105Z,100557.94
2019-02-06T20:54:02.321Z,100557.55
2019-02-06T20:56:31.745Z,100552.66
2019-02-06T20:59:00.507Z,100557.59
2019-02-06T21:01:30.413Z,100553.20
2019-02-06T21:03:59.288Z,100558.47
2019-02-06T21:06:28.371Z,100551.88
2019-02-06T21:08:57.655Z,100548.37
2019-02-06T21:11:26.966Z,100544.02
2019-02-06T21:13:55.728Z,100541.83
2019-02-06T21:16:24.692Z,100536.55
2019-02-06T21:18:56.964Z,100538.80
2019-02-06T21:21:25.679Z,100542.76
2019-02-06T21:23:54.441Z,100536.61
2019-02-06T21:26:23.278Z,100536.16
2019-02-06T21:28:52.327Z,100523.88
2019-02-06T21:31:24.203Z,100531.78
2019-02-06T21:33:53.028Z,100522.16
2019-02-06T21:36:21.768Z,100515.18
2019-02-06T21:38:50.535Z,100508.59
2019-02-06T21:41:21.910Z,100509.91
2019-02-06T21:43:51.219Z,100516.02
2019-02-06T21:46:19.952Z,100505.95
2019-02-06T21:48:48.713Z,100501.06
2019-02-06T21:51:17.448Z,100498.88
2019-02-06T21:53:46.205Z,100502.38
2019-02-06T21:56:14.943Z,100497.98
2019-02-06T21:58:43.762Z,100498.88
2019-02-06T22:01:12.547Z,100493.16
2019-02-06T22:03:41.276Z,100494.53
2019-02-06T22:06:10.042Z,100496.23
2019-02-06T22:08:38.821Z,100493.66
2019-02-06T22:11:07.658Z,100499.86
2019-02-06T22:13:36.795Z,100501.57
2019-02-06T22:16:05.590Z,100493.27
2019-02-06T22:18:34.322Z,100488.44
2019-02-06T22:21:03.271Z,100487.13
2019-02-06T22:23:32.009Z,100492.00
2019-02-06T22:26:00.768Z,100485.91
2019-02-06T22:28:29.833Z,100492.52
2019-02-06T22:30:58.594Z,100491.67
2019-02-06T22:33:27.326Z,100483.34
2019-02-06T22:35:56.093Z,100485.98
2019-02-06T22:38:24.853Z,100485.14
2019-02-06T22:40:53.614Z,100476.74
2019-02-06T22:43:22.357Z,100474.65
2019-02-06T22:45:51.130Z,100469.38
2019-02-06T22:48:19.945Z,100473.33
2019-02-06T22:50:48.717Z,100470.75
2019-02-06T22:53:17.453Z,100469.43
2019-02-06T22:55:46.214Z,100472.13
2019-02-06T22:58:14.957Z,100458.94
2019-02-06T23:01:19.661Z,100461.58
2019-02-06T23:03:49.318Z,100453.25
2019-02-06T23:06:18.114Z,100455.09
2019-02-06T23:08:46.898Z,100453.78
2019-02-06T23:11:15.656Z,100448.51
2019-02-06T23:13:44.465Z,100446.77
2019-02-06T23:16:13.235Z,100449.02
2019-02-06T23:18:42.098Z,100445.06
2019-02-06T23:21:10.861Z,100449.02
2019-02-06T23:23:39.768Z,100446.38
2019-02-06T23:26:08.609Z,100433.70
2019-02-06T23:28:37.345Z,100435.50
2019-02-06T23:31:06.105Z,100436.39
2019-02-06T23:33:34.919Z,100424.14
2019-02-06T23:36:03.910Z,100431.13
2019-02-06T23:38:33.129Z,100419.73
2019-02-06T23:41:02.008Z,100406.61
2019-02-06T23:43:30.817Z,100399.09
2019-02-06T23:45:59.576Z,100397.84
2019-02-06T23:48:28.401Z,100393.88
2019-02-06T23:50:57.165Z,100386.48
2019-02-06T23:53:26.176Z,100386.90
2019-02-06T23:55:54.972Z,100392.23
2019-02-06T23:58:23.709Z,100391.30
